Airfield :
LOGIN :

Register | Disclaimer

   EN    FR    IT 

 










Legend :    VFR   Marginal VFR   IFR   Intensive IFR   Very Intensive IFR
Visi :
Ceiling :
>= 8 km
>= 3000ft
5 to 8 km
1000 to 3000 ft
1500m to 5 km
500 to 1000 ft
800 to 1500m
200 to 500 ft
< 800m
< 200 ft
Symbols :   Thunderstorms  Fog  Heavy snow  Heavy precipitations  Wind > 20 kt
SIGMETs :     Misc.  Thunderstorms  Icing  Turbulence  Mountain Waves  Volcanic Ashes






- Airport Elevation : 52 ft
- IATA code : RNN


EKRN - Bornholm Ronne

CURRENT METAR :
  • 070820Z AUTO 22014G24KT 190V250 9999 R11/P1500N R29/1400N NCD 13/09 Q1023

EXPIRED METARs :
  • 070750Z AUTO 21012KT 180V250 9999 R11/P1500N R29/1400N NCD 13/10 Q1023
  • 070720Z AUTO 20013KT 170V240 9999 R11/P1500N R29/1400N FEW011/// 13/10 Q1024
  • 070650Z AUTO 21011KT 170V240 9999 NCD 13/10 Q1023
  • 070620Z AUTO 22011KT 180V250 9999 NCD 13/10 Q1023
  • 070550Z AUTO 22011KT 200V260 9999 NCD 13/09 Q1023

TAF TAF EKRN
Valid from the 07 at 09:00 until the 07 at 18:00 UTC


070821Z 0709/0718 22018KT 9999 FEW025
TEMPO 0709/0718 22018G30KT



MET'MAP, your aeronautical weather chart ! - Copyright ORBIFLY December 2007 - Disclaimer

ORBIFLY MET'MAP TEAM :

Programming & Development : Alexandra Zaïnal
Original concept : Baudouin d'Aumeries
Technical & hardware support : Manuel Goepfert
Assistance : Marc-Olivier Méhu




SOURCES & CREDITS :

   NOAA